Airfield :
LOGIN :

Register | Disclaimer

   EN    FR    IT 

 










Legend :    VFR   Marginal VFR   IFR   Intensive IFR   Very Intensive IFR
Visi :
Ceiling :
>= 8 km
>= 3000ft
5 to 8 km
1000 to 3000 ft
1500m to 5 km
500 to 1000 ft
800 to 1500m
200 to 500 ft
< 800m
< 200 ft
Symbols :   Thunderstorms  Fog  Heavy snow  Heavy precipitations  Wind > 20 kt
SIGMETs :     Misc.  Thunderstorms  Icing  Turbulence  Mountain Waves  Volcanic Ashes






- Airport Elevation : 100 ft


EBDT - Schaffen

CURRENT METAR :
  • 230655Z AUTO 16003KT 7000 FEW044/// OVC080/// 13/10 Q1006 WHT

EXPIRED METARs :
  • 230625Z AUTO 17004KT 6000 BKN080/// OVC120/// 11/09 Q1006 WHT
  • 230555Z AUTO 16004KT 5000 FEW070/// BKN110/// 11/09 Q1006 WHT
  • 230546Z AUTO 17004KT 4900 SCT070/// BKN090/// OVC120/// 11/09 Q1006 GRN
  • 230525Z AUTO 18003KT 5000 FEW075/// BKN090/// BKN220/// 11/09 Q1006 WHT
  • 230518Z AUTO 20003KT 7000 FEW085/// BKN100/// BKN220/// 12/09 Q1006 WHT
  • 230455Z AUTO 23004KT 9000 FEW075/// BKN090/// BKN110/// 12/09 Q1006 BLU
  • 230425Z AUTO 19003KT 5000 FEW075/// BKN090/// BKN100/// 10/09 Q1006 WHT
  • 230417Z AUTO 17003KT 4100 BR FEW075/// BKN090/// BKN110/// 10/09 Q1006 GRN
  • 230355Z AUTO 17004KT 3300 BR FEW065/// BKN090/// OVC110/// 10/09 Q1006 YLO

TAF TAF EBDT
Valid from the 23 at 07:00 until the 23 at 16:00 UTC


230541Z 2307/2316 20005KT 9999 SCT040 SCT090
TEMPO 2312/2316 21010G20KT 3000 SHRA SCT005 BKN015TCU



MET'MAP, your aeronautical weather chart ! - Copyright ORBIFLY December 2007 - Disclaimer

ORBIFLY MET'MAP TEAM :

Programming & Development : Alexandra Zaïnal
Concept & original design : Baudouin d'Aumeries
Assistance for programming : Marc-Olivier Méhu
Technical & hardware support : Manuel Goepfert

Contact : metmap@orbifly.com




SOURCES & CREDITS :

   NOAA